createdAt,value
2022-10-19T00:02:17.538Z,102897.03
2022-10-19T00:04:44.529Z,102893.38
2022-10-19T00:07:11.017Z,102876.91
2022-10-19T00:09:37.520Z,102884.53
2022-10-19T00:12:04.116Z,102885.53
2022-10-19T00:14:30.570Z,102887.59
2022-10-19T00:16:58.095Z,102884.41
2022-10-19T00:19:26.875Z,102882.06
2022-10-19T00:21:53.695Z,102881.66
2022-10-19T00:24:20.275Z,102877.44
2022-10-19T00:26:46.804Z,102881.84
2022-10-19T00:29:14.837Z,102881.25
2022-10-19T00:31:41.760Z,102880.34
2022-10-19T00:34:08.300Z,102871.75
2022-10-19T00:36:37.981Z,102871.31
2022-10-19T00:39:06.355Z,102871.00
2022-10-19T00:41:35.029Z,102873.34
2022-10-19T00:44:08.226Z,102869.56
2022-10-19T00:46:37.716Z,102872.75
2022-10-19T00:49:21.733Z,102878.22
2022-10-19T00:51:52.472Z,102877.94
2022-10-19T00:54:19.232Z,102871.91
2022-10-19T00:56:48.692Z,102864.31
2022-10-19T00:59:18.766Z,102873.50
2022-10-19T01:01:46.097Z,102875.28
2022-10-19T01:04:13.966Z,102873.38
2022-10-19T01:06:41.344Z,102874.38
2022-10-19T01:09:08.616Z,102889.34
2022-10-19T01:11:57.554Z,102874.06
2022-10-19T01:14:36.178Z,102869.81
2022-10-19T01:17:08.733Z,102873.16
2022-10-19T01:20:05.928Z,102871.91
2022-10-19T01:23:00.269Z,102865.56
2022-10-19T01:25:49.648Z,102870.13
2022-10-19T01:28:50.153Z,102867.59
2022-10-19T01:31:58.147Z,102866.72
2022-10-19T01:34:38.713Z,102866.63
2022-10-19T01:37:19.012Z,102865.78
2022-10-19T01:40:09.633Z,102865.59
2022-10-19T01:42:59.021Z,102861.00
2022-10-19T01:45:28.516Z,102878.91
2022-10-19T01:48:04.458Z,102869.66
2022-10-19T01:50:40.934Z,102862.97
2022-10-19T01:53:10.766Z,102865.81
2022-10-19T01:55:42.728Z,102861.28
2022-10-19T01:58:13.426Z,102861.28
2022-10-19T02:00:43.837Z,102854.69
2022-10-19T02:03:12.806Z,102867.50
2022-10-19T02:05:40.583Z,102860.09
2022-10-19T02:08:17.143Z,102847.84
2022-10-19T02:10:45.167Z,102843.72
2022-10-19T02:13:14.663Z,102842.66
2022-10-19T02:15:44.560Z,102846.66
2022-10-19T02:18:15.404Z,102841.47
2022-10-19T02:20:41.903Z,102831.38
2022-10-19T02:23:08.956Z,102825.47
2022-10-19T02:25:36.338Z,102831.50
2022-10-19T02:28:04.587Z,102826.22
2022-10-19T02:30:31.195Z,102821.97
2022-10-19T02:32:57.693Z,102815.03
2022-10-19T02:35:24.290Z,102809.78
2022-10-19T02:37:50.806Z,102796.94
2022-10-19T02:40:17.485Z,102799.59
2022-10-19T02:42:57.292Z,102807.69
2022-10-19T02:45:28.151Z,102803.72
2022-10-19T02:48:23.195Z,102809.78
2022-10-19T02:50:49.731Z,102802.81
2022-10-19T02:53:16.563Z,102806.28
2022-10-19T02:55:43.350Z,102796.31
2022-10-19T02:58:09.911Z,102799.22
2022-10-19T03:00:36.499Z,102805.34
2022-10-19T03:03:03.110Z,102804.22
2022-10-19T03:05:29.868Z,102812.03
2022-10-19T03:07:56.362Z,102813.72
2022-10-19T03:10:23.073Z,102807.41
2022-10-19T03:12:49.540Z,102799.69
2022-10-19T03:15:17.856Z,102808.66
2022-10-19T03:17:44.326Z,102795.47
2022-10-19T03:20:11.726Z,102805.63
2022-10-19T03:22:38.181Z,102804.41
2022-10-19T03:25:05.051Z,102805.16
2022-10-19T03:27:31.888Z,102787.47
2022-10-19T03:29:58.580Z,102796.97
2022-10-19T03:32:25.081Z,102794.06
2022-10-19T03:34:51.519Z,102798.22
2022-10-19T03:37:17.988Z,102797.91
2022-10-19T03:39:44.451Z,102792.94
2022-10-19T03:42:10.918Z,102800.66
2022-10-19T03:44:37.366Z,102790.28
2022-10-19T03:47:03.844Z,102794.91
2022-10-19T03:49:30.309Z,102788.59
2022-10-19T03:51:56.772Z,102794.63
2022-10-19T03:54:26.516Z,102801.69
2022-10-19T03:56:54.011Z,102800.19
2022-10-19T03:59:20.567Z,102802.69
2022-10-19T04:01:47.498Z,102807.78
2022-10-19T04:04:16.810Z,102796.13
2022-10-19T04:06:45.864Z,102814.38
2022-10-19T04:09:14.572Z,102813.91
2022-10-19T04:11:41.603Z,102813.22
2022-10-19T04:16:35.960Z,102809.09
2022-10-19T04:19:03.486Z,102802.06
2022-10-19T04:21:32.845Z,102813.69
2022-10-19T04:24:08.241Z,102814.91
2022-10-19T04:26:39.762Z,102807.75
2022-10-19T04:29:06.409Z,102796.00
2022-10-19T04:31:32.884Z,102799.03
2022-10-19T04:33:59.491Z,102792.88
2022-10-19T04:36:26.148Z,102793.00
2022-10-19T04:38:52.616Z,102799.03
2022-10-19T04:41:20.923Z,102794.28
2022-10-19T04:43:48.563Z,102796.00
2022-10-19T04:46:19.884Z,102797.31
2022-10-19T04:48:47.769Z,102793.34
2022-10-19T04:51:15.049Z,102794.50
2022-10-19T04:53:42.744Z,102789.88
2022-10-19T04:56:15.467Z,102797.94
2022-10-19T04:58:42.421Z,102785.16
2022-10-19T05:01:14.985Z,102801.34
2022-10-19T05:03:41.496Z,102794.03
2022-10-19T05:06:08.955Z,102786.84
2022-10-19T05:08:36.919Z,102796.75
2022-10-19T05:11:06.203Z,102783.19
2022-10-19T05:13:33.447Z,102797.91
2022-10-19T05:16:01.714Z,102804.69
2022-10-19T05:18:28.756Z,102787.69
2022-10-19T05:21:02.662Z,102800.94
2022-10-19T05:23:29.571Z,102784.59
2022-10-19T05:26:13.425Z,102785.22
2022-10-19T05:28:40.344Z,102790.22
2022-10-19T05:31:11.945Z,102781.47
2022-10-19T05:33:39.539Z,102771.84
2022-10-19T05:36:14.079Z,102780.91
2022-10-19T05:38:40.911Z,102776.84
2022-10-19T05:41:07.596Z,102766.97
2022-10-19T05:43:34.085Z,102768.00
2022-10-19T05:46:08.544Z,102779.97
2022-10-19T05:48:35.556Z,102773.50
2022-10-19T05:51:05.235Z,102771.00
2022-10-19T05:53:32.915Z,102768.06
2022-10-19T05:55:59.438Z,102768.63
2022-10-19T05:58:25.978Z,102760.94
2022-10-19T06:00:58.368Z,102762.63
2022-10-19T06:03:26.151Z,102763.28
2022-10-19T06:05:53.497Z,102770.31
2022-10-19T06:08:21.424Z,102774.97
2022-10-19T06:10:49.065Z,102771.19
2022-10-19T06:13:17.238Z,102773.44
2022-10-19T06:15:44.037Z,102769.88
2022-10-19T06:18:12.108Z,102762.06
2022-10-19T06:20:40.935Z,102760.03
2022-10-19T06:23:08.474Z,102764.78
2022-10-19T06:25:36.017Z,102759.53
2022-10-19T06:28:03.473Z,102753.03
2022-10-19T06:30:29.950Z,102756.50
2022-10-19T06:32:56.591Z,102761.66
2022-10-19T06:35:23.113Z,102752.75
2022-10-19T06:37:49.568Z,102748.22
2022-10-19T06:40:16.128Z,102749.53
2022-10-19T06:42:42.591Z,102753.56
2022-10-19T06:45:10.328Z,102758.84
2022-10-19T06:47:37.182Z,102765.81
2022-10-19T06:50:05.988Z,102776.06
2022-10-19T06:52:34.045Z,102773.03
2022-10-19T06:55:01.270Z,102780.66
2022-10-19T06:57:28.564Z,102774.66
2022-10-19T06:59:55.585Z,102777.44
2022-10-19T07:02:22.063Z,102771.63
2022-10-19T07:04:48.656Z,102769.59
2022-10-19T07:07:15.130Z,102769.59
2022-10-19T07:09:41.578Z,102763.09
2022-10-19T07:12:10.656Z,102753.56
2022-10-19T07:14:39.446Z,102762.06
2022-10-19T07:17:10.987Z,102764.00
2022-10-19T07:19:37.782Z,102767.34
2022-10-19T07:22:04.684Z,102765.47
2022-10-19T07:24:31.143Z,102771.56
2022-10-19T07:26:57.618Z,102772.59
2022-10-19T07:29:24.088Z,102769.19
2022-10-19T07:31:50.559Z,102775.28
2022-10-19T07:34:17.061Z,102771.84
2022-10-19T07:36:48.030Z,102771.63
2022-10-19T07:39:16.889Z,102772.97
2022-10-19T07:41:43.893Z,102778.25
2022-10-19T07:44:14.785Z,102776.47
2022-10-19T07:46:42.193Z,102777.91
2022-10-19T07:49:12.870Z,102772.19
2022-10-19T07:51:40.542Z,102766.81
2022-10-19T07:54:07.047Z,102764.75
2022-10-19T07:56:34.811Z,102757.03
2022-10-19T07:59:01.701Z,102749.34
2022-10-19T08:01:31.112Z,102748.31
2022-10-19T08:04:48.983Z,102749.44
2022-10-19T08:06:45.445Z,102740.25
2022-10-19T08:09:27.646Z,102748.50
2022-10-19T08:11:58.351Z,102742.28
2022-10-19T08:14:24.857Z,102739.84
2022-10-19T08:16:51.363Z,102746.47
2022-10-19T08:19:18.082Z,102740.16
2022-10-19T08:21:46.624Z,102747.94
2022-10-19T08:24:15.354Z,102745.31
2022-10-19T08:26:42.088Z,102747.75
2022-10-19T08:29:17.766Z,102754.88
2022-10-19T08:31:46.089Z,102743.41
2022-10-19T08:34:14.019Z,102745.75
2022-10-19T08:39:13.128Z,102731.88
2022-10-19T08:42:00.711Z,102728.97
2022-10-19T08:44:48.942Z,102714.81
2022-10-19T08:47:47.005Z,102714.81
2022-10-19T08:50:26.812Z,102705.66
2022-10-19T08:53:03.285Z,102707.81
2022-10-19T08:55:41.320Z,102702.97
2022-10-19T08:58:19.709Z,102696.09
2022-10-19T09:01:00.199Z,102695.31
2022-10-19T09:04:02.302Z,102694.94
2022-10-19T09:06:41.728Z,102704.69
2022-10-19T09:09:13.184Z,102708.06
2022-10-19T09:11:44.271Z,102698.03
2022-10-19T09:14:28.031Z,102705.25
2022-10-19T09:17:01.202Z,102696.09
2022-10-19T09:19:30.806Z,102680.81
2022-10-19T09:22:07.768Z,102687.56
2022-10-19T09:24:43.797Z,102695.13
2022-10-19T09:27:24.676Z,102693.50
2022-10-19T09:29:55.597Z,102688.47
2022-10-19T09:32:32.488Z,102694.63
2022-10-19T09:35:17.276Z,102698.06
2022-10-19T09:37:47.271Z,102688.63
2022-10-19T09:40:22.569Z,102696.00
2022-10-19T09:42:56.804Z,102693.53
2022-10-19T09:45:34.406Z,102706.16
2022-10-19T09:48:07.119Z,102691.41
2022-10-19T09:50:35.303Z,102696.72
2022-10-19T09:53:05.705Z,102688.97
2022-10-19T09:55:42.603Z,102684.84
2022-10-19T09:58:15.262Z,102686.56
2022-10-19T10:00:47.194Z,102674.09
2022-10-19T10:03:22.837Z,102687.88
2022-10-19T10:05:49.775Z,102691.88
2022-10-19T10:08:27.852Z,102677.38
2022-10-19T10:10:54.263Z,102669.81
2022-10-19T10:13:24.138Z,102658.88
2022-10-19T10:15:56.620Z,102643.09
2022-10-19T10:18:25.064Z,102651.31
2022-10-19T10:20:59.443Z,102652.41
2022-10-19T10:23:30.928Z,102649.88
2022-10-19T10:25:59.532Z,102652.22
2022-10-19T10:28:28.415Z,102654.34
2022-10-19T10:31:07.241Z,102662.56
2022-10-19T10:33:44.694Z,102660.28
2022-10-19T10:36:13.019Z,102651.25
2022-10-19T10:38:47.338Z,102651.03
2022-10-19T10:41:17.618Z,102647.44
2022-10-19T10:43:59.644Z,102641.97
2022-10-19T10:46:38.034Z,102635.63
2022-10-19T10:49:07.124Z,102635.84
2022-10-19T10:51:39.827Z,102629.06
2022-10-19T10:54:09.042Z,102636.66
2022-10-19T10:56:35.533Z,102635.84
2022-10-19T10:59:10.060Z,102635.41
2022-10-19T11:02:02.712Z,102618.75
2022-10-19T11:04:36.670Z,102623.16
2022-10-19T11:07:16.413Z,102606.72
2022-10-19T11:09:48.044Z,102597.00
2022-10-19T11:12:18.012Z,102603.09
2022-10-19T11:15:03.950Z,102605.38
2022-10-19T11:17:36.640Z,102599.25
2022-10-19T11:20:06.141Z,102596.91
2022-10-19T11:22:47.171Z,102584.44
2022-10-19T11:25:36.477Z,102576.59
2022-10-19T11:28:33.939Z,102573.59
2022-10-19T11:31:44.357Z,102573.94
2022-10-19T11:34:16.902Z,102579.84
2022-10-19T11:36:54.007Z,102577.50
2022-10-19T11:39:41.926Z,102569.25
2022-10-19T11:42:29.911Z,102571.13
2022-10-19T11:45:15.619Z,102548.50
2022-10-19T11:48:12.801Z,102545.88
2022-10-19T11:50:54.382Z,102545.56
2022-10-19T11:53:50.544Z,102528.03
2022-10-19T11:56:44.656Z,102516.56
2022-10-19T11:59:33.125Z,102503.00
2022-10-19T12:02:48.051Z,102495.31
2022-10-19T12:05:26.321Z,102492.69
2022-10-19T12:08:01.496Z,102496.81
2022-10-19T12:10:43.058Z,102487.03
2022-10-19T12:13:15.323Z,102486.19
2022-10-19T12:15:48.561Z,102476.13
2022-10-19T12:18:32.209Z,102470.63
2022-10-19T12:21:02.773Z,102466.59
2022-10-19T12:23:34.037Z,102471.75
2022-10-19T12:26:04.501Z,102475.72
2022-10-19T12:28:35.607Z,102464.72
2022-10-19T12:31:04.088Z,102452.56
2022-10-19T12:33:36.283Z,102460.13
2022-10-19T12:36:30.032Z,102455.94
2022-10-19T12:39:08.162Z,102440.28
2022-10-19T12:41:39.038Z,102445.88
2022-10-19T12:47:01.405Z,102426.28
2022-10-19T12:49:30.853Z,102430.53
2022-10-19T12:51:59.606Z,102423.59
2022-10-19T12:54:28.417Z,102418.09
2022-10-19T12:56:57.930Z,102410.19
2022-10-19T12:59:28.919Z,102407.34
2022-10-19T13:01:57.004Z,102410.72
2022-10-19T13:04:26.793Z,102409.03
2022-10-19T13:07:10.427Z,102401.34
2022-10-19T13:09:42.544Z,102391.88
2022-10-19T13:12:19.511Z,102391.69
2022-10-19T13:15:00.464Z,102380.91
2022-10-19T13:17:50.565Z,102381.66
2022-10-19T13:20:17.048Z,102383.22
2022-10-19T13:22:46.322Z,102382.38
2022-10-19T13:25:23.762Z,102397.47
2022-10-19T13:27:52.068Z,102379.97
2022-10-19T13:30:39.646Z,102383.22
2022-10-19T13:33:24.647Z,102381.53
2022-10-19T13:36:00.239Z,102379.13
2022-10-19T13:38:31.915Z,102367.38
2022-10-19T13:41:25.796Z,102370.03
2022-10-19T13:44:20.925Z,102364.75
2022-10-19T13:47:20.413Z,102357.56
2022-10-19T13:49:52.483Z,102358.66
2022-10-19T13:52:46.951Z,102348.47
2022-10-19T13:55:27.989Z,102353.88
2022-10-19T13:58:22.599Z,102347.16
2022-10-19T14:01:21.063Z,102337.47
2022-10-19T14:03:47.528Z,102325.63
2022-10-19T14:06:38.707Z,102332.09
2022-10-19T14:09:37.173Z,102327.03
2022-10-19T14:12:09.106Z,102333.00
2022-10-19T14:14:43.625Z,102332.09
2022-10-19T14:20:01.674Z,102321.44
2022-10-19T14:22:38.160Z,102317.84
2022-10-19T14:25:06.592Z,102314.38
2022-10-19T14:27:33.793Z,102303.81
2022-10-19T14:30:00.716Z,102305.63
2022-10-19T14:32:29.409Z,102302.72
2022-10-19T14:37:37.443Z,102305.25
2022-10-19T14:40:26.628Z,102313.03
2022-10-19T14:42:56.867Z,102313.53
2022-10-19T14:45:29.198Z,102311.59
2022-10-19T14:48:05.093Z,102310.75
2022-10-19T14:50:44.912Z,102304.91
2022-10-19T14:53:20.459Z,102312.06
2022-10-19T14:55:49.567Z,102306.19
2022-10-19T14:58:20.453Z,102294.25
2022-10-19T15:00:49.634Z,102297.22
2022-10-19T15:03:26.777Z,102289.31
2022-10-19T15:06:01.238Z,102285.13
2022-10-19T15:08:45.104Z,102270.38
2022-10-19T15:11:26.395Z,102267.97
2022-10-19T15:14:03.515Z,102277.59
2022-10-19T15:16:34.087Z,102272.91
2022-10-19T15:19:06.427Z,102279.13
2022-10-19T15:21:33.483Z,102266.22
2022-10-19T15:24:24.901Z,102260.22
2022-10-19T15:27:06.529Z,102268.13
2022-10-19T15:29:35.120Z,102262.25
2022-10-19T15:32:16.147Z,102257.09
2022-10-19T15:34:44.295Z,102250.16
2022-10-19T15:37:18.033Z,102256.88
2022-10-19T15:39:45.723Z,102252.66
2022-10-19T15:42:44.069Z,102246.44
2022-10-19T15:45:33.324Z,102237.59
2022-10-19T15:48:14.772Z,102234.91
2022-10-19T15:50:47.786Z,102228.69
2022-10-19T15:53:15.053Z,102224.50
2022-10-19T15:55:41.579Z,102212.25
2022-10-19T15:58:11.224Z,102206.13
2022-10-19T16:00:38.895Z,102205.06
2022-10-19T16:03:05.632Z,102196.22
2022-10-19T16:05:32.879Z,102193.56
2022-10-19T16:07:59.336Z,102192.25
2022-10-19T16:10:27.105Z,102188.53
2022-10-19T16:12:53.773Z,102186.50
2022-10-19T16:15:22.916Z,102178.34
2022-10-19T16:17:55.439Z,102175.09
2022-10-19T16:20:23.116Z,102177.63
2022-10-19T16:22:50.408Z,102168.88
2022-10-19T16:25:17.330Z,102168.28
2022-10-19T16:27:44.114Z,102166.13
2022-10-19T16:30:11.995Z,102171.50
2022-10-19T16:32:39.868Z,102175.56
2022-10-19T16:35:08.330Z,102171.72
2022-10-19T16:37:35.288Z,102164.19
2022-10-19T16:40:01.980Z,102165.97
2022-10-19T16:42:30.494Z,102152.94
2022-10-19T16:44:57.223Z,102160.72
2022-10-19T16:47:23.694Z,102145.97
2022-10-19T16:49:57.829Z,102142.38
2022-10-19T16:52:24.389Z,102129.59
2022-10-19T16:54:50.902Z,102131.38
2022-10-19T16:57:17.379Z,102133.28
2022-10-19T16:59:43.902Z,102132.91
2022-10-19T17:02:11.420Z,102130.03
2022-10-19T17:04:37.935Z,102122.25
2022-10-19T17:07:04.488Z,102125.09
2022-10-19T17:09:41.210Z,102130.09
2022-10-19T17:12:09.212Z,102128.56
2022-10-19T17:14:36.740Z,102126.03
2022-10-19T17:17:03.290Z,102121.63
2022-10-19T17:19:29.978Z,102121.97
2022-10-19T17:21:57.652Z,102128.16
2022-10-19T17:24:24.344Z,102113.19
2022-10-19T17:26:52.047Z,102124.91
2022-10-19T17:29:20.076Z,102124.50
2022-10-19T17:31:46.864Z,102123.31
2022-10-19T17:34:13.839Z,102118.06
2022-10-19T17:36:44.263Z,102115.91
2022-10-19T17:39:19.708Z,102118.56
2022-10-19T17:41:47.950Z,102088.38
2022-10-19T17:44:15.123Z,102115.41
2022-10-19T17:46:41.949Z,102116.16
2022-10-19T17:49:08.923Z,102111.81
2022-10-19T17:51:36.216Z,102128.50
2022-10-19T17:54:05.632Z,102121.34
2022-10-19T17:56:32.195Z,102124.84
2022-10-19T17:58:59.515Z,102137.72
2022-10-19T18:01:26.868Z,102147.75
2022-10-19T18:03:53.675Z,102141.09
2022-10-19T18:06:26.206Z,102132.00
2022-10-19T18:08:55.700Z,102137.81
2022-10-19T18:11:24.688Z,102136.66
2022-10-19T18:13:52.239Z,102117.28
2022-10-19T18:16:21.570Z,102121.63
2022-10-19T18:18:50.060Z,102116.53
2022-10-19T18:21:22.032Z,102122.69
2022-10-19T18:23:48.753Z,102105.91
2022-10-19T18:26:21.948Z,102104.31
2022-10-19T18:28:50.045Z,102110.28
2022-10-19T18:31:21.893Z,102105.25
2022-10-19T18:33:49.226Z,102104.47
2022-10-19T18:36:15.866Z,102105.94
2022-10-19T18:38:42.361Z,102096.84
2022-10-19T18:43:43.581Z,102097.31
2022-10-19T18:46:10.621Z,102088.41
2022-10-19T18:48:38.151Z,102084.81
2022-10-19T18:51:09.133Z,102078.03
2022-10-19T18:53:35.750Z,102073.06
2022-10-19T18:56:05.722Z,102073.59
2022-10-19T18:58:33.651Z,102070.56
2022-10-19T19:01:02.769Z,102070.78
2022-10-19T19:03:29.568Z,102065.66
2022-10-19T19:05:59.788Z,102067.66
2022-10-19T19:08:26.354Z,102056.69
2022-10-19T19:10:52.890Z,102059.19
2022-10-19T19:13:19.398Z,102048.31
2022-10-19T19:15:45.856Z,102047.38
2022-10-19T19:18:12.354Z,102046.63
2022-10-19T19:20:41.873Z,102043.25
2022-10-19T19:23:08.337Z,102035.03
2022-10-19T19:25:34.897Z,102036.13
2022-10-19T19:28:01.351Z,102035.56
2022-10-19T19:30:27.804Z,102027.72
2022-10-19T19:32:54.256Z,102028.47
2022-10-19T19:35:20.699Z,102015.53
2022-10-19T19:37:47.164Z,102010.72
2022-10-19T19:40:13.653Z,101988.56
2022-10-19T19:42:40.188Z,101989.41
2022-10-19T19:45:07.308Z,101991.38
2022-10-19T19:47:34.121Z,101984.81
2022-10-19T19:50:00.851Z,101982.63
2022-10-19T19:52:27.768Z,101992.50
2022-10-19T19:54:54.295Z,101980.47
2022-10-19T19:57:20.939Z,101971.88
2022-10-19T19:59:47.451Z,101976.59
2022-10-19T20:02:16.278Z,101968.81
2022-10-19T20:04:42.739Z,101960.81
2022-10-19T20:07:09.223Z,101955.03
2022-10-19T20:09:35.720Z,101958.66
2022-10-19T20:12:02.316Z,101946.63
2022-10-19T20:14:28.883Z,101944.56
2022-10-19T20:16:55.368Z,101927.47
2022-10-19T20:19:22.175Z,101915.94
2022-10-19T20:21:48.699Z,101913.22
2022-10-19T20:24:15.277Z,101916.16
2022-10-19T20:26:41.728Z,101921.84
2022-10-19T20:29:08.354Z,101913.25
2022-10-19T20:31:39.485Z,101911.31
2022-10-19T20:34:10.650Z,101930.06
2022-10-19T20:36:37.124Z,101923.75
2022-10-19T20:39:03.722Z,101929.84
2022-10-19T20:41:30.177Z,101928.19
2022-10-19T20:43:57.007Z,101922.97
2022-10-19T20:46:27.045Z,101931.38
2022-10-19T20:48:55.522Z,101923.38
2022-10-19T20:51:29.110Z,101916.28
2022-10-19T20:54:00.463Z,101918.56
2022-10-19T20:56:29.809Z,101930.25
2022-10-19T20:59:07.520Z,101936.19
2022-10-19T21:01:36.416Z,101924.47
2022-10-19T21:04:04.784Z,101930.72
2022-10-19T21:06:34.617Z,101927.19
2022-10-19T21:09:01.138Z,101913.50
2022-10-19T21:11:30.356Z,101911.25
2022-10-19T21:14:03.108Z,101902.47
2022-10-19T21:16:33.399Z,101909.13
2022-10-19T21:19:01.838Z,101903.53
2022-10-19T21:21:39.784Z,101909.69
2022-10-19T21:24:17.957Z,101906.72
2022-10-19T21:26:44.682Z,101911.63
2022-10-19T21:29:12.609Z,101898.41
2022-10-19T21:31:44.067Z,101899.91
2022-10-19T21:34:16.304Z,101907.84
2022-10-19T21:36:42.868Z,101893.84
2022-10-19T21:39:09.709Z,101893.72
2022-10-19T21:41:36.507Z,101893.78
2022-10-19T21:44:03.022Z,101897.56
2022-10-19T21:46:29.541Z,101895.84
2022-10-19T21:48:56.918Z,101897.81
2022-10-19T21:51:50.585Z,101896.13
2022-10-19T21:54:19.528Z,101884.41
2022-10-19T21:56:46.776Z,101878.75
2022-10-19T21:59:13.564Z,101872.81
2022-10-19T22:01:41.622Z,101866.50
2022-10-19T22:04:12.130Z,101866.06
2022-10-19T22:06:39.425Z,101858.56
2022-10-19T22:09:09.010Z,101861.88
2022-10-19T22:11:35.735Z,101857.59
2022-10-19T22:14:03.477Z,101854.50
2022-10-19T22:16:30.815Z,101837.75
2022-10-19T22:18:57.336Z,101826.84
2022-10-19T22:21:26.506Z,101823.34
2022-10-19T22:23:55.662Z,101816.97
2022-10-19T22:26:28.559Z,101830.44
2022-10-19T22:28:57.067Z,101822.50
2022-10-19T22:31:24.876Z,101807.97
2022-10-19T22:33:51.396Z,101806.97
2022-10-19T22:36:18.352Z,101806.13
2022-10-19T22:38:45.011Z,101802.69
2022-10-19T22:42:04.323Z,101810.31
2022-10-19T22:44:31.177Z,101788.50
2022-10-19T22:46:58.273Z,101798.13
2022-10-19T22:49:24.803Z,101798.22
2022-10-19T22:51:51.276Z,101781.78
2022-10-19T22:54:17.743Z,101792.72
2022-10-19T22:56:44.284Z,101785.97
2022-10-19T22:59:10.762Z,101786.13
2022-10-19T23:01:37.710Z,101773.41
2022-10-19T23:04:04.357Z,101770.06
2022-10-19T23:06:31.015Z,101760.63
2022-10-19T23:08:57.558Z,101759.19
2022-10-19T23:11:24.156Z,101763.75
2022-10-19T23:13:50.622Z,101765.72
2022-10-19T23:16:17.248Z,101771.19
2022-10-19T23:18:43.839Z,101775.16
2022-10-19T23:21:14.963Z,101764.94
2022-10-19T23:23:42.202Z,101759.69
2022-10-19T23:26:14.980Z,101755.44
2022-10-19T23:28:43.380Z,101744.97
2022-10-19T23:31:17.930Z,101748.28
2022-10-19T23:33:45.106Z,101758.00
2022-10-19T23:36:17.712Z,101756.78
2022-10-19T23:38:44.884Z,101754.44
2022-10-19T23:41:12.579Z,101741.75
2022-10-19T23:43:39.682Z,101746.28
2022-10-19T23:46:06.937Z,101738.25
2022-10-19T23:48:34.439Z,101727.78
2022-10-19T23:51:03.748Z,101715.16
2022-10-19T23:53:34.640Z,101721.91
2022-10-19T23:56:09.536Z,101716.84
2022-10-19T23:58:36.063Z,101716.44
